Time,TemperatureF,DewpointF,PressureIn,WindDirection,WindDirectionDegrees,WindSpeedMPH,WindSpeedGustMPH,Humidity,HourlyPrecipIn,Conditions,Clouds,dailyrainin,SoftwareType,DateUTC
2013-02-28 00:00:00,43.5,20.2,29.59,NNE,22,4.0,4.5,39,0.00,,---,0.00,VWS V14.01,2013-02-28 08:00:00,
2013-02-28 00:05:00,42.4,21.0,29.59,NNE,17,3.6,3.6,42,0.00,,---,0.00,VWS V14.01,2013-02-28 08:05:00,
2013-02-28 00:10:00,42.1,21.8,29.59,NNE,17,0.0,0.0,44,0.00,,---,0.00,VWS V14.01,2013-02-28 08:10:00,
2013-02-28 00:15:00,43.0,25.6,29.59,NNE,17,0.0,0.0,50,0.00,,---,0.00,VWS V14.01,2013-02-28 08:15:00,
2013-02-28 00:20:00,43.2,26.3,29.62,NNE,17,0.0,0.0,51,0.00,,---,0.00,VWS V14.01,2013-02-28 08:20:00,
2013-02-28 00:25:00,42.8,25.5,29.62,NW,317,2.7,3.6,50,0.00,,---,0.00,VWS V14.01,2013-02-28 08:25:00,
2013-02-28 00:31:00,42.4,24.6,29.62,NW,317,2.7,2.7,49,0.00,,---,0.00,VWS V14.01,2013-02-28 08:31:00,
2013-02-28 00:36:00,41.9,23.7,29.62,NW,317,2.7,3.6,48,0.00,,---,0.00,VWS V14.01,2013-02-28 08:36:00,
2013-02-28 00:41:00,41.2,23.0,29.62,NW,317,0.0,0.0,48,0.00,,---,0.00,VWS V14.01,2013-02-28 08:41:00,
2013-02-28 00:46:00,41.2,24.4,29.62,NW,317,0.0,0.0,51,0.00,,---,0.00,VWS V14.01,2013-02-28 08:46:00,
2013-02-28 00:51:00,41.4,25.1,29.62,NW,317,0.0,0.0,52,0.00,,---,0.00,VWS V14.01,2013-02-28 08:51:00,
2013-02-28 00:56:00,42.1,27.1,29.62,NW,317,0.0,0.0,55,0.00,,---,0.00,VWS V14.01,2013-02-28 08:56:00,
2013-02-28 01:01:00,42.3,27.3,29.62,NW,317,0.0,0.0,55,0.00,,---,0.00,VWS V14.01,2013-02-28 09:01:00,
2013-02-28 01:06:00,42.3,27.3,29.62,NW,317,0.0,0.0,55,0.00,,---,0.00,VWS V14.01,2013-02-28 09:06:00,
2013-02-28 01:11:00,41.7,26.3,29.62,NW,317,0.0,0.0,54,0.00,,---,0.00,VWS V14.01,2013-02-28 09:11:00,
2013-02-28 01:16:00,41.7,26.3,29.62,NW,317,0.0,0.0,54,0.00,,---,0.00,VWS V14.01,2013-02-28 09:16:00,
2013-02-28 01:21:00,41.0,25.2,29.62,NW,317,0.0,0.0,53,0.00,,---,0.00,VWS V14.01,2013-02-28 09:21:00,
2013-02-28 01:26:00,41.7,27.2,29.62,NW,317,0.0,0.0,56,0.00,,---,0.00,VWS V14.01,2013-02-28 09:26:00,
2013-02-28 01:32:00,42.1,28.0,29.62,NW,317,0.0,0.0,57,0.00,,---,0.00,VWS V14.01,2013-02-28 09:32:00,
2013-02-28 01:37:00,42.1,28.0,29.62,NW,317,0.0,0.0,57,0.00,,---,0.00,VWS V14.01,2013-02-28 09:37:00,
2013-02-28 01:43:00,42.4,26.5,29.62,ESE,111,3.1,4.5,53,0.00,,---,0.00,VWS V14.01,2013-02-28 09:43:00,
2013-02-28 01:48:00,43.0,27.0,29.62,SE,140,4.5,4.9,53,0.00,,---,0.00,VWS V14.01,2013-02-28 09:48:00,
2013-02-28 01:54:00,42.6,25.8,29.62,SE,140,0.0,0.0,51,0.00,,---,0.00,VWS V14.01,2013-02-28 09:54:00,
2013-02-28 01:59:00,41.5,23.3,29.62,SE,140,0.0,0.0,48,0.00,,---,0.00,VWS V14.01,2013-02-28 09:59:00,
2013-02-28 02:04:00,41.7,24.9,29.62,SE,140,0.0,0.0,51,0.00,,---,0.00,VWS V14.01,2013-02-28 10:04:00,
2013-02-28 02:10:00,42.1,26.2,29.62,ESE,123,0.0,3.6,53,0.00,,---,0.00,VWS V14.01,2013-02-28 10:10:00,
2013-02-28 02:15:00,42.1,25.7,29.62,ESE,123,2.7,2.7,52,0.00,,---,0.00,VWS V14.01,2013-02-28 10:15:00,
2013-02-28 02:20:00,41.0,24.3,29.62,ESE,123,4.0,4.0,51,0.00,,---,0.00,VWS V14.01,2013-02-28 10:20:00,
2013-02-28 02:34:00,38.7,21.6,29.62,NNW,330,0.0,0.0,50,0.00,,---,0.00,VWS V14.01,2013-02-28 10:34:00,
2013-02-28 02:41:00,39.9,26.4,29.62,NNW,330,2.7,3.1,58,0.00,,---,0.00,VWS V14.01,2013-02-28 10:41:00,
2013-02-28 02:46:00,40.8,28.0,29.62,NNW,330,3.6,3.6,60,0.00,,---,0.00,VWS V14.01,2013-02-28 10:46:00,
2013-02-28 02:51:00,41.5,29.5,29.62,NNW,330,3.1,3.1,62,0.00,,---,0.00,VWS V14.01,2013-02-28 10:51:00,
2013-02-28 02:56:00,42.4,29.5,29.62,NNW,334,3.6,4.0,60,0.00,,---,0.00,VWS V14.01,2013-02-28 10:56:00,
2013-02-28 03:01:00,42.6,28.5,29.62,NNW,334,0.0,0.0,57,0.00,,---,0.00,VWS V14.01,2013-02-28 11:01:00,
2013-02-28 03:06:00,41.7,26.8,29.62,NNW,334,0.0,0.0,55,0.00,,---,0.00,VWS V14.01,2013-02-28 11:06:00,
2013-02-28 03:11:00,40.3,24.1,29.62,NNW,334,0.0,0.0,52,0.00,,---,0.00,VWS V14.01,2013-02-28 11:11:00,
2013-02-28 03:17:00,39.4,23.2,29.62,NNW,334,0.0,0.0,52,0.00,,---,0.00,VWS V14.01,2013-02-28 11:17:00,
2013-02-28 03:22:00,39.2,23.5,29.62,NNW,334,0.0,0.0,53,0.00,,---,0.00,VWS V14.01,2013-02-28 11:22:00,
2013-02-28 03:28:00,39.4,23.7,29.62,NNW,334,0.0,0.0,53,0.00,,---,0.00,VWS V14.01,2013-02-28 11:28:00,
2013-02-28 03:33:00,39.2,24.0,29.62,NNW,334,0.0,0.0,54,0.00,,---,0.00,VWS V14.01,2013-02-28 11:33:00,
2013-02-28 03:38:00,38.8,23.6,29.62,NNW,334,0.0,0.0,54,0.00,,---,0.00,VWS V14.01,2013-02-28 11:38:00,
2013-02-28 03:43:00,38.5,23.3,29.62,NNW,334,0.0,0.0,54,0.00,,---,0.00,VWS V14.01,2013-02-28 11:43:00,
2013-02-28 03:48:00,38.8,24.1,29.62,NNW,334,0.0,0.0,55,0.00,,---,0.00,VWS V14.01,2013-02-28 11:48:00,
2013-02-28 03:54:00,39.2,24.8,29.62,NW,312,4.5,5.8,56,0.00,,---,0.00,VWS V14.01,2013-02-28 11:54:00,
2013-02-28 03:59:00,38.7,24.3,29.62,NW,314,0.0,2.7,56,0.00,,---,0.00,VWS V14.01,2013-02-28 11:59:00,
2013-02-28 04:04:00,38.3,24.0,29.62,NW,314,0.0,0.0,56,0.00,,---,0.00,VWS V14.01,2013-02-28 12:04:00,
2013-02-28 04:09:00,38.5,25.0,29.62,NW,314,0.0,0.0,58,0.00,,---,0.00,VWS V14.01,2013-02-28 12:09:00,
2013-02-28 04:14:00,39.2,27.7,29.62,NW,314,0.0,0.0,63,0.00,,---,0.00,VWS V14.01,2013-02-28 12:14:00,
2013-02-28 04:19:00,39.2,27.3,29.62,NW,314,0.0,0.0,62,0.00,,---,0.00,VWS V14.01,2013-02-28 12:19:00,
2013-02-28 04:24:00,39.9,29.1,29.62,WNW,294,5.4,5.4,65,0.00,,---,0.00,VWS V14.01,2013-02-28 12:24:00,
2013-02-28 04:29:00,40.6,30.2,29.62,SE,140,6.7,6.7,66,0.00,,---,0.00,VWS V14.01,2013-02-28 12:29:00,
2013-02-28 04:34:00,41.2,29.2,29.62,SSE,151,5.4,5.8,62,0.00,,---,0.00,VWS V14.01,2013-02-28 12:34:00,
2013-02-28 04:39:00,41.5,27.5,29.62,SSE,153,5.4,5.8,57,0.00,,---,0.00,VWS V14.01,2013-02-28 12:39:00,
2013-02-28 04:44:00,41.5,26.1,29.62,SSE,151,4.9,5.4,54,0.00,,---,0.00,VWS V14.01,2013-02-28 12:44:00,
2013-02-28 04:50:00,41.9,25.6,29.62,SSE,163,5.8,5.8,52,0.00,,---,0.00,VWS V14.01,2013-02-28 12:50:00,
2013-02-28 04:55:00,41.7,24.5,29.62,SE,136,4.9,5.4,50,0.00,,---,0.00,VWS V14.01,2013-02-28 12:55:00,
2013-02-28 05:00:00,42.1,24.8,29.62,SE,133,4.5,4.9,50,0.00,,---,0.00,VWS V14.01,2013-02-28 13:00:00,
2013-02-28 05:05:00,42.8,25.5,29.62,ESE,115,0.0,0.0,50,0.00,,---,0.00,VWS V14.01,2013-02-28 13:05:00,
2013-02-28 05:10:00,42.3,24.5,29.62,ESE,115,0.0,0.0,49,0.00,,---,0.00,VWS V14.01,2013-02-28 13:10:00,
2013-02-28 05:15:00,41.5,23.8,29.62,ESE,115,0.0,0.0,49,0.00,,---,0.00,VWS V14.01,2013-02-28 13:15:00,
2013-02-28 05:20:00,40.6,22.5,29.65,ESE,115,0.0,0.0,48,0.00,,---,0.00,VWS V14.01,2013-02-28 13:20:00,
2013-02-28 05:25:00,41.4,26.0,29.65,ESE,115,0.0,0.0,54,0.00,,---,0.00,VWS V14.01,2013-02-28 13:25:00,
2013-02-28 05:30:00,40.6,24.4,29.65,ESE,105,0.0,0.0,52,0.00,,---,0.00,VWS V14.01,2013-02-28 13:30:00,
2013-02-28 05:35:00,41.0,26.1,29.65,ESE,103,3.1,3.6,55,0.00,,---,0.00,VWS V14.01,2013-02-28 13:35:00,
2013-02-28 05:40:00,41.0,26.5,29.65,ESE,104,0.0,0.0,56,0.00,,---,0.00,VWS V14.01,2013-02-28 13:40:00,
2013-02-28 05:45:00,40.6,25.8,29.65,ESE,103,0.0,0.0,55,0.00,,---,0.00,VWS V14.01,2013-02-28 13:45:00,
2013-02-28 05:50:00,40.3,25.0,29.65,ESE,103,0.0,0.0,54,0.00,,---,0.00,VWS V14.01,2013-02-28 13:50:00,
2013-02-28 05:55:00,39.2,23.5,29.65,NNE,32,0.0,0.0,53,0.00,,---,0.00,VWS V14.01,2013-02-28 13:55:00,
2013-02-28 06:00:00,39.0,23.4,29.65,NW,311,4.5,4.9,53,0.00,,---,0.00,VWS V14.01,2013-02-28 14:00:00,
2013-02-28 06:05:00,38.7,23.5,29.65,NW,312,3.6,4.5,54,0.00,,---,0.00,VWS V14.01,2013-02-28 14:05:00,
2013-02-28 06:10:00,37.8,22.2,29.65,NW,312,0.0,0.0,53,0.00,,---,0.00,VWS V14.01,2013-02-28 14:10:00,
2013-02-28 06:15:00,37.0,21.5,29.65,NW,312,0.0,0.0,53,0.00,,---,0.00,VWS V14.01,2013-02-28 14:15:00,
2013-02-28 06:20:00,37.0,22.4,29.65,NW,312,0.0,0.0,55,0.00,,---,0.00,VWS V14.01,2013-02-28 14:20:00,
2013-02-28 06:25:00,36.9,22.2,29.65,NW,312,0.0,0.0,55,0.00,,---,0.00,VWS V14.01,2013-02-28 14:25:00,
2013-02-28 06:30:00,37.2,23.4,29.65,NW,309,4.5,4.5,57,0.00,,---,0.00,VWS V14.01,2013-02-28 14:30:00,
2013-02-28 06:35:00,37.8,23.9,29.65,NW,305,0.0,3.1,57,0.00,,---,0.00,VWS V14.01,2013-02-28 14:35:00,
2013-02-28 06:40:00,37.0,22.8,29.65,NW,305,0.0,0.0,56,0.00,,---,0.00,VWS V14.01,2013-02-28 14:40:00,
2013-02-28 06:45:00,37.0,22.8,29.65,NW,305,0.0,0.0,56,0.00,,---,0.00,VWS V14.01,2013-02-28 14:45:00,
2013-02-28 06:50:00,37.6,24.6,29.65,NW,305,0.0,0.0,59,0.00,,---,0.00,VWS V14.01,2013-02-28 14:50:00,
2013-02-28 06:55:00,38.7,26.8,29.65,NW,305,0.0,0.0,62,0.00,,---,0.00,VWS V14.01,2013-02-28 14:55:00,
2013-02-28 07:00:00,39.6,29.1,29.65,NW,318,0.0,0.0,66,0.00,,---,0.00,VWS V14.01,2013-02-28 15:00:00,
2013-02-28 07:05:00,40.6,30.9,29.65,NW,318,5.4,5.4,68,0.00,,---,0.00,VWS V14.01,2013-02-28 15:05:00,
2013-02-28 07:10:00,41.0,30.9,29.65,SE,141,6.7,6.7,67,0.00,,---,0.00,VWS V14.01,2013-02-28 15:10:00,
2013-02-28 07:15:00,41.5,30.3,29.65,SE,145,4.9,5.4,64,0.00,,---,0.00,VWS V14.01,2013-02-28 15:15:00,
2013-02-28 07:20:00,42.4,30.0,29.65,SE,143,4.0,5.4,61,0.00,,---,0.00,VWS V14.01,2013-02-28 15:20:00,
2013-02-28 07:25:00,43.2,29.4,29.65,SE,146,0.0,0.0,58,0.00,,---,0.00,VWS V14.01,2013-02-28 15:25:00,
2013-02-28 07:30:00,43.9,29.2,29.65,SE,146,0.0,0.0,56,0.00,,---,0.00,VWS V14.01,2013-02-28 15:30:00,
2013-02-28 07:35:00,44.2,28.7,29.65,SE,146,0.0,0.0,54,0.00,,---,0.00,VWS V14.01,2013-02-28 15:35:00,
2013-02-28 07:40:00,44.4,27.0,29.65,North,356,0.0,0.0,50,0.00,,---,0.00,VWS V14.01,2013-02-28 15:40:00,
2013-02-28 07:45:00,45.1,27.6,29.65,NW,322,4.0,4.5,50,0.00,,---,0.00,VWS V14.01,2013-02-28 15:45:00,
2013-02-28 07:50:00,45.5,27.0,29.65,NW,321,4.9,5.8,48,0.00,,---,0.00,VWS V14.01,2013-02-28 15:50:00,
2013-02-28 07:55:00,46.0,27.0,29.65,NW,316,5.8,6.3,47,0.00,,---,0.00,VWS V14.01,2013-02-28 15:55:00,
2013-02-28 08:00:00,46.0,27.0,29.65,NW,326,3.1,5.4,47,0.00,,---,0.00,VWS V14.01,2013-02-28 16:00:00,
2013-02-28 08:05:00,46.4,27.8,29.68,NNW,341,4.9,5.4,48,0.00,,---,0.00,VWS V14.01,2013-02-28 16:05:00,
2013-02-28 08:10:00,46.8,26.6,29.68,NNW,335,4.5,4.9,45,0.00,,---,0.00,VWS V14.01,2013-02-28 16:10:00,
2013-02-28 08:15:00,47.3,26.5,29.68,NNW,331,4.5,4.9,44,0.00,,---,0.00,VWS V14.01,2013-02-28 16:15:00,
2013-02-28 08:20:00,48.2,25.0,29.68,North,351,0.0,3.6,40,0.00,,---,0.00,VWS V14.01,2013-02-28 16:20:00,
2013-02-28 08:25:00,49.5,24.3,29.68,NNW,332,0.0,4.0,37,0.00,,---,0.00,VWS V14.01,2013-02-28 16:25:00,
2013-02-28 08:32:00,51.6,25.6,29.68,NW,325,4.0,4.0,36,0.00,,---,0.00,VWS V14.01,2013-02-28 16:32:00,
2013-02-28 08:37:00,52.0,23.1,29.68,NW,325,0.0,0.0,32,0.00,,---,0.00,VWS V14.01,2013-02-28 16:37:00,
2013-02-28 08:42:00,52.5,23.5,29.68,NW,315,3.1,3.1,32,0.00,,---,0.00,VWS V14.01,2013-02-28 16:42:00,
2013-02-28 08:47:00,54.0,23.2,29.68,NW,324,3.6,3.6,30,0.00,,---,0.00,VWS V14.01,2013-02-28 16:47:00,
2013-02-28 08:52:00,55.0,23.4,29.68,NW,312,0.0,2.7,29,0.00,,---,0.00,VWS V14.01,2013-02-28 16:52:00,
2013-02-28 08:57:00,55.9,23.3,29.68,NW,307,0.0,0.0,28,0.00,,---,0.00,VWS V14.01,2013-02-28 16:57:00,
2013-02-28 09:02:00,55.8,22.3,29.68,WNW,298,3.6,4.5,27,0.00,,---,0.00,VWS V14.01,2013-02-28 17:02:00,
2013-02-28 09:07:00,55.9,21.6,29.68,NW,304,3.6,3.6,26,0.00,,---,0.00,VWS V14.01,2013-02-28 17:07:00,
2013-02-28 09:12:00,56.3,21.9,29.68,West,281,3.1,3.6,26,0.00,,---,0.00,VWS V14.01,2013-02-28 17:12:00,
2013-02-28 09:17:00,57.0,22.5,29.68,West,263,0.0,0.0,26,0.00,,---,0.00,VWS V14.01,2013-02-28 17:17:00,
2013-02-28 09:22:00,57.6,22.0,29.68,South,189,0.0,3.6,25,0.00,,---,0.00,VWS V14.01,2013-02-28 17:22:00,
2013-02-28 09:27:00,58.1,22.5,29.68,West,280,3.6,3.6,25,0.00,,---,0.00,VWS V14.01,2013-02-28 17:27:00,
2013-02-28 09:32:00,58.5,22.8,29.68,WSW,237,0.0,0.0,25,0.00,,---,0.00,VWS V14.01,2013-02-28 17:32:00,
2013-02-28 09:37:00,58.6,22.0,29.68,NW,307,3.1,4.5,24,0.00,,---,0.00,VWS V14.01,2013-02-28 17:37:00,
2013-02-28 09:42:00,58.5,21.8,29.68,NNW,334,4.0,5.4,24,0.00,,---,0.00,VWS V14.01,2013-02-28 17:42:00,
2013-02-28 09:47:00,58.5,21.8,29.68,West,262,4.0,4.9,24,0.00,,---,0.00,VWS V14.01,2013-02-28 17:47:00,
2013-02-28 09:52:00,59.5,22.7,29.68,SW,214,3.1,4.5,24,0.00,,---,0.00,VWS V14.01,2013-02-28 17:52:00,
2013-02-28 09:57:00,60.8,23.8,29.68,West,264,3.6,4.0,24,0.00,,---,0.00,VWS V14.01,2013-02-28 17:57:00,
2013-02-28 10:02:00,61.3,24.3,29.68,SW,236,3.1,4.9,24,0.00,,---,0.00,VWS V14.01,2013-02-28 18:02:00,
2013-02-28 10:07:00,61.9,24.7,29.68,WSW,252,4.5,5.4,24,0.00,,---,0.00,VWS V14.01,2013-02-28 18:07:00,
2013-02-28 10:12:00,62.4,24.2,29.68,WNW,293,5.4,6.7,23,0.00,,---,0.00,VWS V14.01,2013-02-28 18:12:00,
2013-02-28 10:17:00,62.4,24.2,29.68,West,270,6.3,7.8,23,0.00,,---,0.00,VWS V14.01,2013-02-28 18:17:00,
2013-02-28 10:22:00,62.8,24.5,29.68,West,271,5.4,7.4,23,0.00,,---,0.00,VWS V14.01,2013-02-28 18:22:00,
2013-02-28 10:27:00,63.1,24.8,29.68,WSW,252,6.9,7.4,23,0.00,,---,0.00,VWS V14.01,2013-02-28 18:27:00,
2013-02-28 10:32:00,63.3,24.9,29.68,WSW,237,6.7,7.4,23,0.00,,---,0.00,VWS V14.01,2013-02-28 18:32:00,
2013-02-28 10:37:00,63.3,24.9,29.68,SW,217,7.8,8.7,23,0.00,,---,0.00,VWS V14.01,2013-02-28 18:37:00,
2013-02-28 10:42:00,64.0,25.5,29.68,West,274,5.8,6.9,23,0.00,,---,0.00,VWS V14.01,2013-02-28 18:42:00,
2013-02-28 10:47:00,64.6,26.0,29.65,WSW,257,4.0,4.0,23,0.00,,---,0.00,VWS V14.01,2013-02-28 18:47:00,
2013-02-28 10:52:00,64.9,26.3,29.65,WNW,288,4.9,6.3,23,0.00,,---,0.00,VWS V14.01,2013-02-28 18:52:00,
2013-02-28 10:57:00,65.1,23.1,29.65,WSW,245,4.0,4.5,20,0.00,,---,0.00,VWS V14.01,2013-02-28 18:57:00,
2013-02-28 11:02:00,65.3,26.6,29.65,SW,234,6.3,7.8,23,0.00,,---,0.00,VWS V14.01,2013-02-28 19:02:00,
2013-02-28 11:07:00,65.5,23.4,29.65,West,276,3.1,4.9,20,0.00,,---,0.00,VWS V14.01,2013-02-28 19:07:00,
2013-02-28 11:12:00,65.7,23.5,29.65,WNW,283,7.8,8.7,20,0.00,,---,0.00,VWS V14.01,2013-02-28 19:12:00,
2013-02-28 11:17:00,65.7,23.5,29.65,West,268,5.4,6.7,20,0.00,,---,0.00,VWS V14.01,2013-02-28 19:17:00,
2013-02-28 11:22:00,65.7,23.5,29.65,WNW,295,6.7,8.3,20,0.00,,---,0.00,VWS V14.01,2013-02-28 19:22:00,
2013-02-28 11:27:00,65.5,23.4,29.65,WNW,282,4.9,7.4,20,0.00,,---,0.00,VWS V14.01,2013-02-28 19:27:00,
2013-02-28 11:32:00,66.2,26.3,29.65,WSW,249,7.4,7.4,22,0.00,,---,0.00,VWS V14.01,2013-02-28 19:32:00,
2013-02-28 11:37:00,66.4,24.1,29.65,West,267,8.7,8.7,20,0.00,,---,0.00,VWS V14.01,2013-02-28 19:37:00,
2013-02-28 11:42:00,66.4,26.4,29.65,WSW,244,7.4,8.3,22,0.00,,---,0.00,VWS V14.01,2013-02-28 19:42:00,
2013-02-28 11:48:00,66.9,24.6,29.65,SSW,196,7.4,8.3,20,0.00,,---,0.00,VWS V14.01,2013-02-28 19:48:00,
2013-02-28 11:53:00,66.4,26.4,29.65,WNW,295,6.3,9.2,22,0.00,,---,0.00,VWS V14.01,2013-02-28 19:53:00,
2013-02-28 11:58:00,67.6,25.2,29.65,WSW,255,5.8,6.9,20,0.00,,---,0.00,VWS V14.01,2013-02-28 19:58:00,
2013-02-28 12:03:00,66.9,24.6,29.65,NW,313,6.3,7.4,20,0.00,,---,0.00,VWS V14.01,2013-02-28 20:03:00,
2013-02-28 12:08:00,67.8,25.3,29.65,WSW,253,5.4,6.7,20,0.00,,---,0.00,VWS V14.01,2013-02-28 20:08:00,
2013-02-28 12:13:00,67.5,25.0,29.65,West,275,7.8,9.2,20,0.00,,---,0.00,VWS V14.01,2013-02-28 20:13:00,
2013-02-28 12:18:00,68.4,25.8,29.65,WSW,241,8.3,8.7,20,0.00,,---,0.00,VWS V14.01,2013-02-28 20:18:00,
2013-02-28 12:23:00,68.9,25.0,29.65,West,269,6.7,10.1,19,0.00,,---,0.00,VWS V14.01,2013-02-28 20:23:00,
2013-02-28 12:29:00,68.4,25.8,29.65,NNW,333,5.4,6.3,20,0.00,,---,0.00,VWS V14.01,2013-02-28 20:29:00,
2013-02-28 12:34:00,68.4,25.8,29.62,West,261,7.8,8.3,20,0.00,,---,0.00,VWS V14.01,2013-02-28 20:34:00,
2013-02-28 12:39:00,68.7,26.1,29.62,SW,215,4.9,6.7,20,0.00,,---,0.00,VWS V14.01,2013-02-28 20:39:00,
2013-02-28 12:44:00,67.3,24.9,29.62,SW,214,4.9,6.7,20,0.00,,---,0.00,VWS V14.01,2013-02-28 20:44:00,
2013-02-28 12:49:00,68.7,26.1,29.62,West,262,7.8,7.8,20,0.00,,---,0.00,VWS V14.01,2013-02-28 20:49:00,
2013-02-28 12:54:00,69.6,22.9,29.62,West,263,4.9,6.7,17,0.00,,---,0.00,VWS V14.01,2013-02-28 20:54:00,
2013-02-28 12:59:00,70.2,23.4,29.62,WSW,237,4.5,4.5,17,0.00,,---,0.00,VWS V14.01,2013-02-28 20:59:00,
2013-02-28 13:04:00,70.3,23.5,29.62,SSW,203,0.0,0.0,17,0.00,,---,0.00,VWS V14.01,2013-02-28 21:04:00,
2013-02-28 13:09:00,70.9,22.5,29.62,WNW,297,4.0,4.9,16,0.00,,---,0.00,VWS V14.01,2013-02-28 21:09:00,
2013-02-28 13:14:00,70.9,22.5,29.62,WNW,298,2.7,2.7,16,0.00,,---,0.00,VWS V14.01,2013-02-28 21:14:00,
2013-02-28 13:19:00,70.3,23.5,29.59,WNW,298,4.5,6.9,17,0.00,,---,0.00,VWS V14.01,2013-02-28 21:19:00,
2013-02-28 13:24:00,70.5,23.6,29.59,WNW,288,6.3,10.5,17,0.00,,---,0.00,VWS V14.01,2013-02-28 21:24:00,
2013-02-28 13:30:00,69.8,23.1,29.59,WNW,300,5.4,5.4,17,0.00,,---,0.00,VWS V14.01,2013-02-28 21:30:00,
2013-02-28 13:35:00,69.4,22.8,29.59,WSW,249,5.8,11.6,17,0.00,,---,0.00,VWS V14.01,2013-02-28 21:35:00,
2013-02-28 13:40:00,68.5,22.0,29.59,NW,318,3.1,5.8,17,0.00,,---,0.00,VWS V14.01,2013-02-28 21:40:00,
2013-02-28 13:45:00,68.7,22.2,29.59,West,268,4.9,5.4,17,0.00,,---,0.00,VWS V14.01,2013-02-28 21:45:00,
2013-02-28 13:51:00,70.0,23.2,29.59,North,351,4.9,4.9,17,0.00,,---,0.00,VWS V14.01,2013-02-28 21:51:00,
2013-02-28 13:56:00,69.8,23.1,29.59,West,281,9.6,11.2,17,0.00,,---,0.00,VWS V14.01,2013-02-28 21:56:00,
2013-02-28 14:01:00,70.2,23.4,29.59,NW,307,6.9,7.4,17,0.00,,---,0.00,VWS V14.01,2013-02-28 22:01:00,
2013-02-28 14:06:00,69.3,22.6,29.59,SW,233,4.5,6.7,17,0.00,,---,0.00,VWS V14.01,2013-02-28 22:06:00,
2013-02-28 14:11:00,70.0,23.2,29.59,West,275,4.0,6.9,17,0.00,,---,0.00,VWS V14.01,2013-02-28 22:11:00,
2013-02-28 14:17:00,70.2,23.4,29.59,WNW,295,7.4,8.3,17,0.00,,---,0.00,VWS V14.01,2013-02-28 22:17:00,
2013-02-28 14:22:00,70.9,22.5,29.59,WSW,257,4.5,6.3,16,0.00,,---,0.00,VWS V14.01,2013-02-28 22:22:00,
2013-02-28 14:27:00,71.1,22.6,29.59,SW,234,7.8,8.3,16,0.00,,---,0.00,VWS V14.01,2013-02-28 22:27:00,
2013-02-28 14:32:00,71.6,23.1,29.59,West,259,5.8,9.2,16,0.00,,---,0.00,VWS V14.01,2013-02-28 22:32:00,
2013-02-28 14:37:00,71.2,22.8,29.59,NNW,332,7.8,10.5,16,0.00,,---,0.00,VWS V14.01,2013-02-28 22:37:00,
2013-02-28 14:42:00,70.3,23.5,29.59,WSW,257,8.7,11.6,17,0.00,,---,0.00,VWS V14.01,2013-02-28 22:42:00,
2013-02-28 14:47:00,70.5,23.6,29.59,WNW,285,13.4,13.4,17,0.00,,---,0.00,VWS V14.01,2013-02-28 22:47:00,
2013-02-28 14:52:00,70.2,23.4,29.59,West,260,11.0,13.0,17,0.00,,---,0.00,VWS V14.01,2013-02-28 22:52:00,
2013-02-28 14:57:00,69.8,23.1,29.59,WNW,298,7.4,11.0,17,0.00,,---,0.00,VWS V14.01,2013-02-28 22:57:00,
2013-02-28 15:02:00,69.4,22.8,29.59,WNW,299,12.1,12.5,17,0.00,,---,0.00,VWS V14.01,2013-02-28 23:02:00,
2013-02-28 15:07:00,69.8,23.1,29.59,WNW,299,8.7,11.2,17,0.00,,---,0.00,VWS V14.01,2013-02-28 23:07:00,
2013-02-28 15:12:00,69.8,23.1,29.59,West,273,8.3,9.2,17,0.00,,---,0.00,VWS V14.01,2013-02-28 23:12:00,
2013-02-28 15:18:00,69.3,22.6,29.59,WNW,297,10.1,11.0,17,0.00,,---,0.00,VWS V14.01,2013-02-28 23:18:00,
2013-02-28 15:23:00,69.3,22.6,29.59,West,268,7.8,8.7,17,0.00,,---,0.00,VWS V14.01,2013-02-28 23:23:00,
2013-02-28 15:29:00,69.3,22.6,29.59,WNW,301,5.4,6.3,17,0.00,,---,0.00,VWS V14.01,2013-02-28 23:29:00,
2013-02-28 15:34:00,68.9,22.3,29.59,NW,307,6.3,7.4,17,0.00,,---,0.00,VWS V14.01,2013-02-28 23:34:00,
2013-02-28 15:39:00,68.9,22.3,29.59,West,261,6.9,7.4,17,0.00,,---,0.00,VWS V14.01,2013-02-28 23:39:00,
2013-02-28 15:44:00,69.1,22.5,29.59,WNW,292,5.8,6.7,17,0.00,,---,0.00,VWS V14.01,2013-02-28 23:44:00,
2013-02-28 15:49:00,68.5,22.0,29.59,NW,317,7.4,8.3,17,0.00,,---,0.00,VWS V14.01,2013-02-28 23:49:00,
2013-02-28 15:54:00,68.7,22.2,29.59,WNW,288,5.8,7.4,17,0.00,,---,0.00,VWS V14.01,2013-02-28 23:54:00,
2013-02-28 15:59:00,69.1,22.5,29.59,West,274,5.4,9.6,17,0.00,,---,0.00,VWS V14.01,2013-02-28 23:59:00,
2013-02-28 16:04:00,68.5,22.0,29.59,WNW,289,5.4,8.3,17,0.00,,---,0.00,VWS V14.01,2013-03-01 00:04:00,
2013-02-28 16:09:00,68.7,22.2,29.59,WSW,256,5.8,6.3,17,0.00,,---,0.00,VWS V14.01,2013-03-01 00:09:00,
2013-02-28 16:14:00,68.7,22.2,29.59,NW,316,6.7,9.6,17,0.00,,---,0.00,VWS V14.01,2013-03-01 00:14:00,
2013-02-28 16:19:00,68.2,21.7,29.59,NW,315,0.0,6.9,17,0.00,,---,0.00,VWS V14.01,2013-03-01 00:19:00,
2013-02-28 16:25:00,68.4,21.9,29.59,NW,309,5.4,5.8,17,0.00,,---,0.00,VWS V14.01,2013-03-01 00:25:00,
2013-02-28 16:31:00,68.5,22.0,29.59,WNW,290,7.8,9.2,17,0.00,,---,0.00,VWS V14.01,2013-03-01 00:31:00,
2013-02-28 16:36:00,68.4,21.9,29.59,West,276,8.7,9.2,17,0.00,,---,0.00,VWS V14.01,2013-03-01 00:36:00,
2013-02-28 16:42:00,67.6,21.3,29.59,WNW,283,8.3,10.5,17,0.00,,---,0.00,VWS V14.01,2013-03-01 00:42:00,
2013-02-28 16:47:00,66.9,24.6,29.59,West,274,6.7,9.2,20,0.00,,---,0.00,VWS V14.01,2013-03-01 00:47:00,
2013-02-28 16:52:00,66.6,24.3,29.59,WSW,254,7.8,8.7,20,0.00,,---,0.00,VWS V14.01,2013-03-01 00:52:00,
2013-02-28 16:57:00,66.0,23.8,29.59,West,268,9.6,11.0,20,0.00,,---,0.00,VWS V14.01,2013-03-01 00:57:00,
2013-02-28 17:03:00,65.1,23.1,29.59,WNW,283,6.3,8.7,20,0.00,,---,0.00,VWS V14.01,2013-03-01 01:03:00,
2013-02-28 17:08:00,64.6,22.6,29.59,West,271,8.3,8.3,20,0.00,,---,0.00,VWS V14.01,2013-03-01 01:08:00,
2013-02-28 17:13:00,64.2,22.3,29.59,WNW,288,4.0,5.4,20,0.00,,---,0.00,VWS V14.01,2013-03-01 01:13:00,
2013-02-28 17:18:00,63.9,22.0,29.59,NW,312,4.9,6.9,20,0.00,,---,0.00,VWS V14.01,2013-03-01 01:18:00,
2013-02-28 17:23:00,63.1,22.6,29.59,WSW,251,5.4,6.7,21,0.00,,---,0.00,VWS V14.01,2013-03-01 01:23:00,
2013-02-28 17:29:00,62.6,24.3,29.59,WNW,284,6.7,6.9,23,0.00,,---,0.00,VWS V14.01,2013-03-01 01:29:00,
2013-02-28 17:34:00,62.2,24.0,29.59,WNW,302,6.3,6.3,23,0.00,,---,0.00,VWS V14.01,2013-03-01 01:34:00,
2013-02-28 17:39:00,61.9,23.7,29.59,WNW,283,3.6,4.0,23,0.00,,---,0.00,VWS V14.01,2013-03-01 01:39:00,
2013-02-28 17:44:00,61.2,24.1,29.59,WNW,282,3.6,3.6,24,0.00,,---,0.00,VWS V14.01,2013-03-01 01:44:00,
2013-02-28 17:49:00,60.6,23.6,29.59,WNW,282,4.5,4.5,24,0.00,,---,0.00,VWS V14.01,2013-03-01 01:49:00,
2013-02-28 17:54:00,60.3,23.4,29.59,SW,236,4.0,5.4,24,0.00,,---,0.00,VWS V14.01,2013-03-01 01:54:00,
2013-02-28 17:59:00,59.9,25.0,29.59,SSW,206,4.5,4.9,26,0.00,,---,0.00,VWS V14.01,2013-03-01 01:59:00,
2013-02-28 18:04:00,60.3,25.3,29.59,SSW,211,2.7,5.4,26,0.00,,---,0.00,VWS V14.01,2013-03-01 02:04:00,
2013-02-28 18:09:00,60.1,25.1,29.59,SSW,195,4.0,4.5,26,0.00,,---,0.00,VWS V14.01,2013-03-01 02:09:00,
2013-02-28 18:14:00,59.5,25.5,29.59,SW,214,3.6,4.5,27,0.00,,---,0.00,VWS V14.01,2013-03-01 02:14:00,
2013-02-28 18:19:00,59.0,25.1,29.59,WSW,242,4.5,4.9,27,0.00,,---,0.00,VWS V14.01,2013-03-01 02:19:00,
2013-02-28 18:24:00,58.5,25.5,29.59,SW,227,4.9,4.9,28,0.00,,---,0.00,VWS V14.01,2013-03-01 02:24:00,
2013-02-28 18:29:00,57.9,26.7,29.59,SW,219,3.6,4.0,30,0.00,,---,0.00,VWS V14.01,2013-03-01 02:29:00,
2013-02-28 18:34:00,57.9,27.5,29.62,SW,216,5.4,5.4,31,0.00,,---,0.00,VWS V14.01,2013-03-01 02:34:00,
2013-02-28 18:39:00,58.5,27.2,29.62,SW,219,4.0,4.0,30,0.00,,---,0.00,VWS V14.01,2013-03-01 02:39:00,
2013-02-28 18:44:00,57.7,26.5,29.62,SSE,152,3.6,3.6,30,0.00,,---,0.00,VWS V14.01,2013-03-01 02:44:00,
2013-02-28 18:49:00,56.8,28.1,29.62,SE,133,5.4,5.8,33,0.00,,---,0.00,VWS V14.01,2013-03-01 02:49:00,
2013-02-28 18:54:00,57.0,29.7,29.62,SE,132,4.5,4.5,35,0.00,,---,0.00,VWS V14.01,2013-03-01 02:54:00,
2013-02-28 18:59:00,56.8,28.8,29.62,SE,132,0.0,0.0,34,0.00,,---,0.00,VWS V14.01,2013-03-01 02:59:00,
2013-02-28 19:04:00,55.9,28.7,29.62,SE,132,0.0,0.0,35,0.00,,---,0.00,VWS V14.01,2013-03-01 03:04:00,
2013-02-28 19:10:00,55.4,28.9,29.62,SE,132,0.0,0.0,36,0.00,,---,0.00,VWS V14.01,2013-03-01 03:10:00,
2013-02-28 19:15:00,55.4,29.6,29.62,ESE,121,4.5,4.5,37,0.00,,---,0.00,VWS V14.01,2013-03-01 03:15:00,
2013-02-28 19:20:00,54.7,29.6,29.62,ESE,111,3.6,4.5,38,0.00,,---,0.00,VWS V14.01,2013-03-01 03:20:00,
2013-02-28 19:25:00,54.9,31.0,29.62,ESE,113,0.0,0.0,40,0.00,,---,0.00,VWS V14.01,2013-03-01 03:25:00,
2013-02-28 19:30:00,54.7,29.6,29.62,ESE,113,3.6,4.0,38,0.00,,---,0.00,VWS V14.01,2013-03-01 03:30:00,
2013-02-28 19:35:00,54.5,30.7,29.62,ESE,114,0.0,3.1,40,0.00,,---,0.00,VWS V14.01,2013-03-01 03:35:00,
2013-02-28 19:40:00,54.0,29.6,29.62,ESE,112,3.1,3.6,39,0.00,,---,0.00,VWS V14.01,2013-03-01 03:40:00,
2013-02-28 19:45:00,54.0,30.8,29.62,ESE,113,3.1,3.1,41,0.00,,---,0.00,VWS V14.01,2013-03-01 03:45:00,
2013-02-28 19:51:00,52.5,28.3,29.65,ESE,113,0.0,0.0,39,0.00,,---,0.00,VWS V14.01,2013-03-01 03:51:00,
2013-02-28 19:56:00,51.6,28.7,29.65,NW,323,3.6,4.0,41,0.00,,---,0.00,VWS V14.01,2013-03-01 03:56:00,
2013-02-28 20:02:00,51.8,32.2,29.65,NNW,328,0.0,0.0,47,0.00,,---,0.00,VWS V14.01,2013-03-01 04:02:00,
2013-02-28 20:07:00,51.8,32.2,29.65,NNW,328,0.0,0.0,47,0.00,,---,0.00,VWS V14.01,2013-03-01 04:07:00,
2013-02-28 20:13:00,51.8,32.2,29.65,NNW,328,0.0,0.0,47,0.00,,---,0.00,VWS V14.01,2013-03-01 04:13:00,
2013-02-28 20:18:00,51.8,32.2,29.65,NNW,328,0.0,0.0,47,0.00,,---,0.00,VWS V14.01,2013-03-01 04:18:00,
2013-02-28 20:23:00,51.8,32.2,29.65,NNW,328,0.0,0.0,47,0.00,,---,0.00,VWS V14.01,2013-03-01 04:23:00,
2013-02-28 20:28:00,51.8,32.2,29.65,NNW,328,0.0,0.0,47,0.00,,---,0.00,VWS V14.01,2013-03-01 04:28:00,
2013-02-28 20:34:00,51.8,32.2,29.65,NNW,328,0.0,0.0,47,0.00,,---,0.00,VWS V14.01,2013-03-01 04:34:00,
2013-02-28 20:39:00,52.0,32.4,29.65,NNW,328,0.0,0.0,47,0.00,,---,0.00,VWS V14.01,2013-03-01 04:39:00,
2013-02-28 20:45:00,52.0,32.4,29.65,NNW,328,0.0,0.0,47,0.00,,---,0.00,VWS V14.01,2013-03-01 04:45:00,
2013-02-28 20:50:00,51.8,32.2,29.65,NNW,328,0.0,0.0,47,0.00,,---,0.00,VWS V14.01,2013-03-01 04:50:00,
2013-02-28 20:56:00,52.2,32.0,29.65,ESE,119,3.1,3.1,46,0.00,,---,0.00,VWS V14.01,2013-03-01 04:56:00,
2013-02-28 21:00:00,52.0,32.4,29.65,ESE,119,3.6,3.6,47,0.00,,---,0.00,VWS V14.01,2013-03-01 05:00:00,
2013-02-28 21:03:00,51.6,32.1,29.65,ESE,119,3.6,3.6,47,0.00,,---,0.00,VWS V14.01,2013-03-01 05:03:00,
2013-02-28 21:05:00,51.4,31.9,29.65,ESE,119,3.6,3.6,47,0.00,,---,0.00,VWS V14.01,2013-03-01 05:05:00,
2013-02-28 21:07:00,51.3,31.7,29.65,ESE,119,0.0,3.1,47,0.00,,---,0.00,VWS V14.01,2013-03-01 05:07:00,
2013-02-28 21:12:00,50.4,30.4,29.65,ESE,119,0.0,0.0,46,0.00,,---,0.00,VWS V14.01,2013-03-01 05:12:00,
2013-02-28 21:17:00,49.5,30.1,29.65,ESE,119,0.0,0.0,47,0.00,,---,0.00,VWS V14.01,2013-03-01 05:17:00,
2013-02-28 21:22:00,49.6,32.3,29.65,NNW,338,4.9,5.4,51,0.00,,---,0.00,VWS V14.01,2013-03-01 05:22:00,
2013-02-28 21:28:00,48.6,31.3,29.65,NNW,338,0.0,0.0,51,0.00,,---,0.00,VWS V14.01,2013-03-01 05:28:00,
2013-02-28 21:34:00,48.4,32.0,29.68,NNW,338,0.0,0.0,53,0.00,,---,0.00,VWS V14.01,2013-03-01 05:34:00,
2013-02-28 21:39:00,48.7,33.8,29.68,NNW,338,0.0,0.0,56,0.00,,---,0.00,VWS V14.01,2013-03-01 05:39:00,
2013-02-28 21:44:00,49.8,37.3,29.68,NNW,338,0.0,0.0,62,0.00,,---,0.00,VWS V14.01,2013-03-01 05:44:00,
2013-02-28 21:49:00,50.2,37.7,29.68,NNW,339,0.0,0.0,62,0.00,,---,0.00,VWS V14.01,2013-03-01 05:49:00,
2013-02-28 21:54:00,50.2,36.4,29.68,NNW,339,0.0,0.0,59,0.00,,---,0.00,VWS V14.01,2013-03-01 05:54:00,
2013-02-28 22:00:00,50.0,35.8,29.68,NE,45,0.0,0.0,58,0.00,,---,0.00,VWS V14.01,2013-03-01 06:00:00,
2013-02-28 22:05:00,49.8,34.8,29.68,NE,45,0.0,0.0,56,0.00,,---,0.00,VWS V14.01,2013-03-01 06:05:00,
2013-02-28 22:10:00,49.8,35.2,29.68,NE,45,0.0,0.0,57,0.00,,---,0.00,VWS V14.01,2013-03-01 06:10:00,
2013-02-28 22:15:00,49.6,35.9,29.68,NE,45,0.0,0.0,59,0.00,,---,0.00,VWS V14.01,2013-03-01 06:15:00,
2013-02-28 22:20:00,49.3,35.1,29.68,NE,45,0.0,0.0,58,0.00,,---,0.00,VWS V14.01,2013-03-01 06:20:00,
2013-02-28 22:26:00,49.1,35.4,29.68,NE,45,0.0,0.0,59,0.00,,---,0.00,VWS V14.01,2013-03-01 06:26:00,
2013-02-28 22:32:00,48.2,33.7,29.68,NE,45,0.0,0.0,57,0.00,,---,0.00,VWS V14.01,2013-03-01 06:32:00,
2013-02-28 22:37:00,48.0,34.0,29.68,NE,45,0.0,0.0,58,0.00,,---,0.00,VWS V14.01,2013-03-01 06:37:00,
2013-02-28 22:42:00,47.7,33.6,29.68,NE,45,0.0,0.0,58,0.00,,---,0.00,VWS V14.01,2013-03-01 06:42:00,
2013-02-28 22:47:00,46.8,32.3,29.68,NE,45,0.0,0.0,57,0.00,,---,0.00,VWS V14.01,2013-03-01 06:47:00,
2013-02-28 22:52:00,48.4,36.8,29.68,NE,45,0.0,0.0,64,0.00,,---,0.00,VWS V14.01,2013-03-01 06:52:00,
2013-02-28 22:58:00,49.5,40.1,29.68,ESE,111,2.7,3.1,70,0.00,,---,0.00,VWS V14.01,2013-03-01 06:58:00,
2013-02-28 23:04:00,49.8,39.3,29.68,ESE,111,0.0,2.7,67,0.00,,---,0.00,VWS V14.01,2013-03-01 07:04:00,
2013-02-28 23:09:00,49.1,37.1,29.68,ESE,111,0.0,0.0,63,0.00,,---,0.00,VWS V14.01,2013-03-01 07:09:00,
2013-02-28 23:14:00,47.8,34.2,29.68,ESE,111,0.0,0.0,59,0.00,,---,0.00,VWS V14.01,2013-03-01 07:14:00,
2013-02-28 23:19:00,47.3,33.3,29.68,ESE,111,0.0,0.0,58,0.00,,---,0.00,VWS V14.01,2013-03-01 07:19:00,
2013-02-28 23:25:00,47.3,33.7,29.68,ESE,112,0.0,0.0,59,0.00,,---,0.00,VWS V14.01,2013-03-01 07:25:00,
2013-02-28 23:30:00,47.7,35.3,29.68,ESE,111,0.0,0.0,62,0.00,,---,0.00,VWS V14.01,2013-03-01 07:30:00,
2013-02-28 23:35:00,47.5,35.5,29.68,ESE,111,0.0,0.0,63,0.00,,---,0.00,VWS V14.01,2013-03-01 07:35:00,
2013-02-28 23:40:00,47.3,35.4,29.68,ESE,111,0.0,0.0,63,0.00,,---,0.00,VWS V14.01,2013-03-01 07:40:00,
2013-02-28 23:45:00,46.6,34.3,29.68,ESE,111,0.0,0.0,62,0.00,,---,0.00,VWS V14.01,2013-03-01 07:45:00,
2013-02-28 23:50:00,45.9,33.6,29.68,ESE,111,0.0,0.0,62,0.00,,---,0.00,VWS V14.01,2013-03-01 07:50:00,
2013-02-28 23:55:00,45.1,32.9,29.68,ESE,111,0.0,0.0,62,0.00,,---,0.00,VWS V14.01,2013-03-01 07:55:00,